createdAt,value
2022-12-31T00:03:34.303Z,46.20
2022-12-31T00:06:01.105Z,45.72
2022-12-31T00:08:28.064Z,45.88
2022-12-31T00:10:54.757Z,51.17
2022-12-31T00:13:21.825Z,55.25
2022-12-31T00:15:48.565Z,52.30
2022-12-31T00:18:15.327Z,52.70
2022-12-31T00:20:42.353Z,51.53
2022-12-31T00:23:10.698Z,54.38
2022-12-31T00:25:38.284Z,50.92
2022-12-31T00:28:05.469Z,53.28
2022-12-31T00:30:32.350Z,50.35
2022-12-31T00:32:59.166Z,49.65
2022-12-31T00:35:26.888Z,46.53
2022-12-31T00:37:53.673Z,52.40
2022-12-31T00:40:20.517Z,50.30
2022-12-31T00:42:47.341Z,53.42
2022-12-31T00:45:14.177Z,49.45
2022-12-31T00:47:40.907Z,46.72
2022-12-31T00:50:07.977Z,49.95
2022-12-31T00:52:34.741Z,38.25
2022-12-31T00:55:01.456Z,46.08
2022-12-31T00:57:28.190Z,42.85
2022-12-31T00:59:54.956Z,48.55
2022-12-31T01:02:21.879Z,40.38
2022-12-31T01:04:48.838Z,46.58
2022-12-31T01:07:15.575Z,40.70
2022-12-31T01:09:42.399Z,46.63
2022-12-31T01:12:09.271Z,47.63
2022-12-31T01:14:36.004Z,43.47
2022-12-31T01:17:02.894Z,47.20
2022-12-31T01:19:29.960Z,42.92
2022-12-31T01:21:57.222Z,41.03
2022-12-31T01:24:24.744Z,46.35
2022-12-31T01:26:51.951Z,42.67
2022-12-31T01:29:18.864Z,42.85
2022-12-31T01:31:45.892Z,42.53
2022-12-31T01:34:12.737Z,44.58
2022-12-31T01:36:39.597Z,45.95
2022-12-31T01:39:08.058Z,50.42
2022-12-31T01:41:44.960Z,46.38
2022-12-31T01:44:11.701Z,43.65
2022-12-31T01:46:52.208Z,47.10
2022-12-31T01:49:24.586Z,51.38
2022-12-31T01:51:56.583Z,47.65
2022-12-31T01:54:27.409Z,54.88
2022-12-31T01:56:56.544Z,51.55
2022-12-31T01:59:26.980Z,44.42
2022-12-31T02:01:54.590Z,46.35
2022-12-31T02:04:24.096Z,46.97
2022-12-31T02:06:56.434Z,45.90
2022-12-31T02:09:23.235Z,49.35
2022-12-31T02:11:49.973Z,45.38
2022-12-31T02:14:30.892Z,45.90
2022-12-31T02:17:16.224Z,43.60
2022-12-31T02:20:04.243Z,45.25
2022-12-31T02:22:55.926Z,42.88
2022-12-31T02:25:34.793Z,42.95
2022-12-31T02:28:04.568Z,44.38
2022-12-31T02:30:33.131Z,43.40
2022-12-31T02:33:13.982Z,42.65
2022-12-31T02:35:48.301Z,47.15
2022-12-31T02:38:30.232Z,44.28
2022-12-31T02:40:57.961Z,42.88
2022-12-31T02:43:25.505Z,41.15
2022-12-31T02:46:01.248Z,45.97
2022-12-31T02:48:37.168Z,43.25
2022-12-31T02:51:19.289Z,42.50
2022-12-31T02:53:48.945Z,46.70
2022-12-31T02:56:38.456Z,44.45
2022-12-31T02:59:29.965Z,48.47
2022-12-31T03:02:16.683Z,44.53
2022-12-31T03:04:49.654Z,44.28
2022-12-31T03:07:28.001Z,43.08
2022-12-31T03:09:55.558Z,42.08
2022-12-31T03:12:47.005Z,46.15
2022-12-31T03:15:21.745Z,47.30
2022-12-31T03:17:49.817Z,50.00
2022-12-31T03:20:35.352Z,43.50
2022-12-31T03:23:04.012Z,43.92
2022-12-31T03:25:38.153Z,43.95
2022-12-31T03:28:11.333Z,45.22
2022-12-31T03:30:41.094Z,44.85
2022-12-31T03:33:09.156Z,47.22
2022-12-31T03:35:37.759Z,47.28
2022-12-31T03:38:05.094Z,43.05
2022-12-31T03:40:34.997Z,45.63
2022-12-31T03:43:01.837Z,46.28
2022-12-31T03:45:28.712Z,47.45
2022-12-31T03:47:55.451Z,48.47
2022-12-31T03:50:22.405Z,44.67
2022-12-31T03:52:49.205Z,44.67
2022-12-31T03:55:16.084Z,45.08
2022-12-31T03:57:43.233Z,46.13
2022-12-31T04:00:14.200Z,40.60
2022-12-31T04:02:41.694Z,44.35
2022-12-31T04:05:08.916Z,40.55
2022-12-31T04:07:35.810Z,40.78
2022-12-31T04:10:04.468Z,42.65
2022-12-31T04:12:31.284Z,46.92
2022-12-31T04:14:58.628Z,44.03
2022-12-31T04:17:25.685Z,48.17
2022-12-31T04:19:52.511Z,46.47
2022-12-31T04:22:19.735Z,45.88
2022-12-31T04:24:46.569Z,48.05
2022-12-31T04:27:14.094Z,50.70
2022-12-31T04:29:40.837Z,44.30
2022-12-31T04:32:08.804Z,44.42
2022-12-31T04:34:36.002Z,50.88
2022-12-31T04:37:03.406Z,47.85
2022-12-31T04:39:30.310Z,49.28
2022-12-31T04:41:57.094Z,47.90
2022-12-31T04:44:23.873Z,52.40
2022-12-31T04:46:50.574Z,44.38
2022-12-31T04:49:17.323Z,47.25
2022-12-31T04:51:44.139Z,42.13
2022-12-31T04:54:11.136Z,51.80
2022-12-31T04:56:37.953Z,44.97
2022-12-31T04:59:05.436Z,43.38
2022-12-31T05:01:33.199Z,41.15
2022-12-31T05:04:00.354Z,42.25
2022-12-31T05:06:27.244Z,41.85
2022-12-31T05:08:54.357Z,38.58
2022-12-31T05:11:21.173Z,39.83
2022-12-31T05:13:47.927Z,40.97
2022-12-31T05:16:14.815Z,37.60
2022-12-31T05:18:41.635Z,37.15
2022-12-31T05:21:08.568Z,37.25
2022-12-31T05:23:35.661Z,37.42
2022-12-31T05:26:02.479Z,33.75
2022-12-31T05:28:29.343Z,31.38
2022-12-31T05:30:56.345Z,39.63
2022-12-31T05:33:23.332Z,40.53
2022-12-31T05:35:50.625Z,37.42
2022-12-31T05:38:17.433Z,34.95
2022-12-31T05:40:44.435Z,33.85
2022-12-31T05:43:11.276Z,34.97
2022-12-31T05:45:38.048Z,31.50
2022-12-31T05:48:05.151Z,32.53
2022-12-31T05:50:32.067Z,31.42
2022-12-31T05:52:58.879Z,35.08
2022-12-31T05:55:25.654Z,32.60
2022-12-31T05:57:52.372Z,30.45
2022-12-31T06:00:19.255Z,32.10
2022-12-31T06:02:46.336Z,30.77
2022-12-31T06:05:13.185Z,34.35
2022-12-31T06:07:39.992Z,32.40
2022-12-31T06:10:07.864Z,35.67
2022-12-31T06:12:35.593Z,32.60
2022-12-31T06:15:02.487Z,34.47
2022-12-31T06:17:30.315Z,33.58
2022-12-31T06:19:57.110Z,32.50
2022-12-31T06:22:23.987Z,32.28
2022-12-31T06:24:50.719Z,31.50
2022-12-31T06:27:17.506Z,39.95
2022-12-31T06:29:45.825Z,41.63
2022-12-31T06:32:12.793Z,34.40
2022-12-31T06:34:39.536Z,38.47
2022-12-31T06:37:06.380Z,59.33
2022-12-31T06:39:33.188Z,54.67
2022-12-31T06:42:00.377Z,40.90
2022-12-31T06:44:27.161Z,38.85
2022-12-31T06:46:53.961Z,42.78
2022-12-31T06:49:20.839Z,38.42
2022-12-31T06:51:48.011Z,41.92
2022-12-31T06:54:14.862Z,37.08
2022-12-31T06:56:42.266Z,39.30
2022-12-31T06:59:24.309Z,39.53
2022-12-31T07:02:14.457Z,40.05
2022-12-31T07:07:32.807Z,32.90
2022-12-31T07:10:29.904Z,36.40
2022-12-31T07:13:08.993Z,41.65
2022-12-31T07:16:00.292Z,36.78
2022-12-31T07:18:52.976Z,33.35
2022-12-31T07:21:30.179Z,37.83
2022-12-31T07:23:57.187Z,39.75
2022-12-31T07:26:36.174Z,33.67
2022-12-31T07:29:17.179Z,36.38
2022-12-31T07:31:53.107Z,38.30
2022-12-31T07:34:46.521Z,40.00
2022-12-31T07:37:38.292Z,37.63
2022-12-31T07:40:38.936Z,33.20
2022-12-31T07:43:14.873Z,39.78
2022-12-31T07:45:50.848Z,36.67
2022-12-31T07:48:26.920Z,33.75
2022-12-31T07:50:56.171Z,36.30
2022-12-31T07:53:24.816Z,40.43
2022-12-31T07:56:01.182Z,37.28
2022-12-31T07:58:39.948Z,35.30
2022-12-31T08:01:15.860Z,37.10
2022-12-31T08:04:00.815Z,32.42
2022-12-31T08:06:52.095Z,35.00
2022-12-31T08:09:35.830Z,36.67
2022-12-31T08:12:03.292Z,36.38
2022-12-31T08:14:31.016Z,37.35
2022-12-31T08:16:58.524Z,34.60
2022-12-31T08:19:30.106Z,37.13
2022-12-31T08:22:32.686Z,34.85
2022-12-31T08:25:02.469Z,34.80
2022-12-31T08:28:01.052Z,37.85
2022-12-31T08:30:53.889Z,36.22
2022-12-31T08:33:38.391Z,41.15
2022-12-31T08:36:33.180Z,33.88
2022-12-31T08:39:21.295Z,32.85
2022-12-31T08:41:55.238Z,31.75
2022-12-31T08:44:46.165Z,34.90
2022-12-31T08:47:48.688Z,37.25
2022-12-31T08:50:18.026Z,30.50
2022-12-31T08:52:45.939Z,36.17
2022-12-31T08:55:15.580Z,33.95
2022-12-31T08:57:58.219Z,31.90
2022-12-31T09:00:27.651Z,36.88
2022-12-31T09:03:13.393Z,38.78
2022-12-31T09:05:58.367Z,33.92
2022-12-31T09:08:55.889Z,34.42
2022-12-31T09:11:23.600Z,33.60
2022-12-31T09:13:56.389Z,35.03
2022-12-31T09:16:34.278Z,33.22
2022-12-31T09:19:01.159Z,39.33
2022-12-31T09:21:28.030Z,35.72
2022-12-31T09:23:55.060Z,34.75
2022-12-31T09:26:39.917Z,32.15
2022-12-31T09:29:25.354Z,46.00
2022-12-31T09:32:07.189Z,32.28
2022-12-31T09:34:57.031Z,31.38
2022-12-31T09:37:55.288Z,36.78
2022-12-31T09:40:46.716Z,29.73
2022-12-31T09:43:16.427Z,26.75
2022-12-31T09:46:00.045Z,28.08
2022-12-31T09:48:51.987Z,28.50
2022-12-31T09:51:27.971Z,25.23
2022-12-31T09:54:13.031Z,28.65
2022-12-31T09:57:01.775Z,32.13
2022-12-31T09:59:45.838Z,30.98
2022-12-31T10:02:50.979Z,27.15
2022-12-31T10:05:36.402Z,29.77
2022-12-31T10:08:35.901Z,33.28
2022-12-31T10:11:29.445Z,31.90
2022-12-31T10:14:22.303Z,26.27
2022-12-31T10:16:58.965Z,25.90
2022-12-31T10:20:02.983Z,26.08
2022-12-31T10:22:51.547Z,26.33
2022-12-31T10:25:21.237Z,25.77
2022-12-31T10:28:31.043Z,26.02
2022-12-31T10:31:07.991Z,22.60
2022-12-31T10:34:05.139Z,24.45
2022-12-31T10:36:52.150Z,25.35
2022-12-31T10:39:29.880Z,25.75
2022-12-31T10:42:26.244Z,26.63
2022-12-31T10:45:13.283Z,27.27
2022-12-31T10:48:08.654Z,29.38
2022-12-31T10:51:03.148Z,23.25
2022-12-31T10:53:32.714Z,25.02
2022-12-31T10:56:21.534Z,28.90
2022-12-31T10:59:25.721Z,27.48
2022-12-31T11:02:16.179Z,28.90
2022-12-31T11:05:10.406Z,25.77
2022-12-31T11:08:08.911Z,25.02
2022-12-31T11:10:47.496Z,23.88
2022-12-31T11:13:41.864Z,22.73
2022-12-31T11:16:26.965Z,24.38
2022-12-31T11:19:23.107Z,23.45
2022-12-31T11:22:25.709Z,24.13
2022-12-31T11:25:11.430Z,24.30
2022-12-31T11:27:47.691Z,20.27
2022-12-31T11:30:40.361Z,22.55
2022-12-31T11:33:07.268Z,16.00
2022-12-31T11:36:11.138Z,19.77
2022-12-31T11:38:51.755Z,16.23
2022-12-31T11:41:27.394Z,16.65
2022-12-31T11:44:13.377Z,19.10
2022-12-31T11:47:07.936Z,19.00
2022-12-31T11:50:18.200Z,16.33
2022-12-31T11:53:24.160Z,14.75
2022-12-31T11:56:12.824Z,14.40
2022-12-31T11:58:45.671Z,17.15
2022-12-31T12:01:25.029Z,17.45
2022-12-31T12:03:52.083Z,18.15
2022-12-31T12:06:25.884Z,17.90
2022-12-31T12:08:53.669Z,17.95
2022-12-31T12:11:26.514Z,18.98
2022-12-31T12:13:53.692Z,18.15
2022-12-31T12:16:23.138Z,15.73
2022-12-31T12:19:02.515Z,18.77
2022-12-31T12:24:05.875Z,15.18
2022-12-31T12:26:42.964Z,16.80
2022-12-31T12:29:12.926Z,13.90
2022-12-31T12:34:21.376Z,15.15
2022-12-31T12:36:48.572Z,12.63
2022-12-31T12:39:23.233Z,14.15
2022-12-31T12:42:19.383Z,13.48
2022-12-31T12:44:46.084Z,16.27
2022-12-31T12:47:17.796Z,15.95
2022-12-31T12:49:47.267Z,13.93
2022-12-31T12:52:43.181Z,16.80
2022-12-31T12:55:28.369Z,13.05
2022-12-31T12:58:05.117Z,14.00
2022-12-31T13:00:44.763Z,13.55
2022-12-31T13:03:26.683Z,14.43
2022-12-31T13:05:56.874Z,14.23
2022-12-31T13:08:42.108Z,11.55
2022-12-31T13:11:47.230Z,12.88
2022-12-31T13:14:23.087Z,11.75
2022-12-31T13:16:59.385Z,14.73
2022-12-31T13:19:45.243Z,11.00
2022-12-31T13:22:23.435Z,12.40
2022-12-31T13:25:27.702Z,11.70
2022-12-31T13:27:58.699Z,18.10
2022-12-31T13:30:33.470Z,11.98
2022-12-31T13:33:18.515Z,13.13
2022-12-31T13:35:57.806Z,13.75
2022-12-31T13:38:48.725Z,16.90
2022-12-31T13:41:22.993Z,16.25
2022-12-31T13:44:26.491Z,15.70
2022-12-31T13:47:22.165Z,14.38
2022-12-31T13:50:02.877Z,15.02
2022-12-31T13:52:53.171Z,16.65
2022-12-31T13:55:32.454Z,12.73
2022-12-31T13:57:59.177Z,15.30
2022-12-31T14:00:31.695Z,12.85
2022-12-31T14:03:13.728Z,12.43
2022-12-31T14:06:01.156Z,14.43
2022-12-31T14:08:28.227Z,13.63
2022-12-31T14:11:07.807Z,12.57
2022-12-31T14:13:40.346Z,12.63
2022-12-31T14:16:38.107Z,12.93
2022-12-31T14:19:31.128Z,11.85
2022-12-31T14:22:17.201Z,10.95
2022-12-31T14:24:44.519Z,11.23
2022-12-31T14:27:19.802Z,14.90
2022-12-31T14:30:01.869Z,13.25
2022-12-31T14:32:34.272Z,30.38
2022-12-31T14:35:37.450Z,21.58
2022-12-31T14:38:25.786Z,16.67
2022-12-31T14:41:23.071Z,20.05
2022-12-31T14:44:20.883Z,17.33
2022-12-31T14:47:04.906Z,15.02
2022-12-31T14:49:55.968Z,17.83
2022-12-31T14:52:32.575Z,14.00
2022-12-31T14:55:21.160Z,16.10
2022-12-31T14:58:26.564Z,16.48
2022-12-31T15:00:53.738Z,11.50
2022-12-31T15:03:25.261Z,11.18
2022-12-31T15:06:01.955Z,9.95
2022-12-31T15:08:47.137Z,10.00
2022-12-31T15:11:31.477Z,11.70
2022-12-31T15:14:23.109Z,14.82
2022-12-31T15:17:08.627Z,18.63
2022-12-31T15:20:07.965Z,24.58
2022-12-31T15:22:47.421Z,24.98
2022-12-31T15:25:40.261Z,21.48
2022-12-31T15:28:31.508Z,23.83
2022-12-31T15:31:18.168Z,21.25
2022-12-31T15:34:01.214Z,23.23
2022-12-31T15:36:35.792Z,19.85
2022-12-31T15:39:11.961Z,19.50
2022-12-31T15:41:46.028Z,21.05
2022-12-31T15:44:59.503Z,36.53
2022-12-31T15:47:43.327Z,25.70
2022-12-31T15:50:20.495Z,30.08
2022-12-31T15:52:55.356Z,29.20
2022-12-31T15:55:33.945Z,32.88
2022-12-31T15:58:06.480Z,36.75
2022-12-31T16:01:10.084Z,27.63
2022-12-31T16:03:37.559Z,19.45
2022-12-31T16:06:11.669Z,22.70
2022-12-31T16:08:38.936Z,21.33
2022-12-31T16:11:07.717Z,38.90
2022-12-31T16:13:41.393Z,48.10
2022-12-31T16:16:23.757Z,33.58
2022-12-31T16:18:51.692Z,29.98
2022-12-31T16:21:38.713Z,23.80
2022-12-31T16:24:33.018Z,22.50
2022-12-31T16:27:09.283Z,26.67
2022-12-31T16:29:38.063Z,24.88
2022-12-31T16:32:05.082Z,26.63
2022-12-31T16:34:37.280Z,25.08
2022-12-31T16:37:16.031Z,26.15
2022-12-31T16:39:57.738Z,23.88
2022-12-31T16:42:28.639Z,31.45
2022-12-31T16:44:57.529Z,35.53
2022-12-31T16:47:36.184Z,35.75
2022-12-31T16:50:08.201Z,31.60
2022-12-31T16:52:41.155Z,32.42
2022-12-31T16:55:19.016Z,33.42
2022-12-31T16:57:55.649Z,26.48
2022-12-31T17:00:24.917Z,29.85
2022-12-31T17:03:21.296Z,27.15
2022-12-31T17:05:57.377Z,22.58
2022-12-31T17:08:28.022Z,26.15
2022-12-31T17:10:56.591Z,23.13
2022-12-31T17:13:29.572Z,19.20
2022-12-31T17:15:58.757Z,18.85
2022-12-31T17:18:30.448Z,25.65
2022-12-31T17:21:07.018Z,23.23
2022-12-31T17:23:35.960Z,23.48
2022-12-31T17:26:27.342Z,25.02
2022-12-31T17:28:56.754Z,37.63
2022-12-31T17:31:39.166Z,30.20
2022-12-31T17:34:15.219Z,38.65
2022-12-31T17:36:50.530Z,24.25
2022-12-31T17:39:19.108Z,24.35
2022-12-31T17:41:47.625Z,21.35
2022-12-31T17:44:24.077Z,26.10
2022-12-31T17:46:51.562Z,26.08
2022-12-31T17:49:22.765Z,20.75
2022-12-31T17:51:49.671Z,17.67
2022-12-31T17:54:18.306Z,19.00
2022-12-31T17:56:45.575Z,16.83
2022-12-31T17:59:22.771Z,18.08
2022-12-31T18:01:50.267Z,24.35
2022-12-31T18:04:19.176Z,28.25
2022-12-31T18:06:45.964Z,29.40
2022-12-31T18:09:12.849Z,20.80
2022-12-31T18:11:41.047Z,22.50
2022-12-31T18:14:08.578Z,30.05
2022-12-31T18:16:35.717Z,19.23
2022-12-31T18:19:02.793Z,20.55
2022-12-31T18:21:32.781Z,22.35
2022-12-31T18:26:28.010Z,22.50
2022-12-31T18:28:55.307Z,22.38
2022-12-31T18:31:30.342Z,25.42
2022-12-31T18:33:58.933Z,26.58
2022-12-31T18:36:27.205Z,64.32
2022-12-31T18:38:54.100Z,39.92
2022-12-31T18:41:24.480Z,36.40
2022-12-31T18:43:51.297Z,37.20
2022-12-31T18:46:21.494Z,37.35
2022-12-31T18:48:48.649Z,34.35
2022-12-31T18:51:18.133Z,43.72
2022-12-31T18:53:45.812Z,34.83
2022-12-31T18:56:15.163Z,62.75
2022-12-31T18:58:42.230Z,55.95
2022-12-31T19:01:28.498Z,72.93
2022-12-31T19:04:14.501Z,68.30
2022-12-31T19:06:42.713Z,52.35
2022-12-31T19:09:30.758Z,61.42
2022-12-31T19:11:56.953Z,64.05
2022-12-31T19:14:24.806Z,54.90
2022-12-31T19:16:54.391Z,68.72
2022-12-31T19:19:21.617Z,34.63
2022-12-31T19:21:48.311Z,41.50
2022-12-31T19:24:25.128Z,52.53
2022-12-31T19:26:52.012Z,29.70
2022-12-31T19:29:24.131Z,25.17
2022-12-31T19:31:51.118Z,22.20
2022-12-31T19:34:18.059Z,25.95
2022-12-31T19:36:45.267Z,31.92
2022-12-31T19:39:18.702Z,40.47
2022-12-31T19:41:46.297Z,42.80
2022-12-31T19:44:17.642Z,38.70
2022-12-31T19:46:45.475Z,28.52
2022-12-31T19:49:15.353Z,35.08
2022-12-31T19:51:42.422Z,31.55
2022-12-31T19:54:12.415Z,32.15
2022-12-31T19:56:39.514Z,32.72
2022-12-31T19:59:07.841Z,36.55
2022-12-31T20:01:34.755Z,32.13
2022-12-31T20:04:01.611Z,32.38
2022-12-31T20:06:28.651Z,32.42
2022-12-31T20:08:55.402Z,27.30
2022-12-31T20:11:23.746Z,39.00
2022-12-31T20:13:54.811Z,32.72
2022-12-31T20:16:24.670Z,39.15
2022-12-31T20:18:51.633Z,31.48
2022-12-31T20:21:21.092Z,37.15
2022-12-31T20:23:49.856Z,41.90
2022-12-31T20:26:17.822Z,32.25
2022-12-31T20:28:45.098Z,35.33
2022-12-31T20:31:17.351Z,32.22
2022-12-31T20:33:44.955Z,31.00
2022-12-31T20:36:14.742Z,26.23
2022-12-31T20:38:41.667Z,28.42
2022-12-31T20:41:14.475Z,26.85
2022-12-31T20:43:41.532Z,30.98
2022-12-31T20:46:15.588Z,32.40
2022-12-31T20:48:44.102Z,24.00
2022-12-31T20:51:12.080Z,27.08
2022-12-31T20:53:39.122Z,29.25
2022-12-31T20:56:08.044Z,32.45
2022-12-31T20:58:35.087Z,29.73
2022-12-31T21:01:05.204Z,29.92
2022-12-31T21:06:18.730Z,29.75
2022-12-31T21:08:45.648Z,26.50
2022-12-31T21:11:31.894Z,28.02
2022-12-31T21:13:59.165Z,31.38
2022-12-31T21:16:26.819Z,26.17
2022-12-31T21:18:54.408Z,32.05
2022-12-31T21:21:21.411Z,32.25
2022-12-31T21:23:48.209Z,28.10
2022-12-31T21:26:15.355Z,26.77
2022-12-31T21:28:42.587Z,24.77
2022-12-31T21:31:12.537Z,24.35
2022-12-31T21:33:39.524Z,38.58
2022-12-31T21:36:06.492Z,57.67
2022-12-31T21:38:36.839Z,51.92
2022-12-31T21:41:05.728Z,49.22
2022-12-31T21:43:32.472Z,48.50
2022-12-31T21:46:03.796Z,39.38
2022-12-31T21:48:30.648Z,31.20
2022-12-31T21:51:27.283Z,25.50
2022-12-31T21:53:54.142Z,24.88
2022-12-31T21:56:21.653Z,41.83
2022-12-31T21:59:14.919Z,41.90
2022-12-31T22:02:00.496Z,40.33
2022-12-31T22:05:00.989Z,49.70
2022-12-31T22:07:14.834Z,46.97
2022-12-31T22:09:41.649Z,48.03
2022-12-31T22:12:08.401Z,36.95
2022-12-31T22:14:35.214Z,33.03
2022-12-31T22:17:01.930Z,34.13
2022-12-31T22:19:28.657Z,28.02
2022-12-31T22:21:55.441Z,26.55
2022-12-31T22:24:22.166Z,26.63
2022-12-31T22:26:48.934Z,72.78
2022-12-31T22:29:15.726Z,31.98
2022-12-31T22:31:42.534Z,27.48
2022-12-31T22:34:09.270Z,21.95
2022-12-31T22:36:36.010Z,25.00
2022-12-31T22:39:02.714Z,27.73
2022-12-31T22:41:29.485Z,28.60
2022-12-31T22:44:03.806Z,50.92
2022-12-31T22:46:31.907Z,35.10
2022-12-31T22:48:59.898Z,36.47
2022-12-31T22:51:56.549Z,30.30
2022-12-31T22:54:14.812Z,37.92
2022-12-31T22:56:41.919Z,37.50
2022-12-31T22:59:09.392Z,38.83
2022-12-31T23:01:36.476Z,38.22
2022-12-31T23:04:03.795Z,34.83
2022-12-31T23:06:31.003Z,33.40
2022-12-31T23:09:16.201Z,46.88
2022-12-31T23:11:45.710Z,67.40
2022-12-31T23:14:36.242Z,44.45
2022-12-31T23:17:31.401Z,170.32
2022-12-31T23:20:20.778Z,159.73
2022-12-31T23:23:07.920Z,527.55
2022-12-31T23:25:37.236Z,185.90
2022-12-31T23:28:05.010Z,71.32
2022-12-31T23:30:32.092Z,70.18
2022-12-31T23:32:58.912Z,82.45
2022-12-31T23:35:25.918Z,64.20
2022-12-31T23:37:52.674Z,81.70
2022-12-31T23:40:21.860Z,110.70
2022-12-31T23:42:51.936Z,112.53
2022-12-31T23:45:18.656Z,118.82
2022-12-31T23:47:45.411Z,104.88
2022-12-31T23:50:12.118Z,113.47
2022-12-31T23:52:38.885Z,242.75
2022-12-31T23:55:05.877Z,235.15
2022-12-31T23:57:32.582Z,246.30
2022-12-31T23:59:59.738Z,200.00
